createdAt,value
2022-12-03T00:00:12.556Z,26.85
2022-12-03T00:05:29.039Z,28.33
2022-12-03T00:07:56.963Z,27.45
2022-12-03T00:10:24.962Z,28.60
2022-12-03T00:12:53.028Z,27.63
2022-12-03T00:15:20.938Z,27.63
2022-12-03T00:17:48.662Z,27.05
2022-12-03T00:20:23.189Z,28.98
2022-12-03T00:22:50.911Z,28.08
2022-12-03T00:25:18.947Z,27.98
2022-12-03T00:27:46.876Z,28.55
2022-12-03T00:30:15.248Z,29.30
2022-12-03T00:32:43.035Z,27.48
2022-12-03T00:35:10.937Z,28.08
2022-12-03T00:37:38.593Z,29.33
2022-12-03T00:40:07.214Z,28.00
2022-12-03T00:42:35.141Z,27.95
2022-12-03T00:45:04.661Z,27.90
2022-12-03T00:47:32.351Z,27.27
2022-12-03T00:50:00.264Z,27.00
2022-12-03T00:52:27.964Z,27.23
2022-12-03T00:54:56.072Z,25.23
2022-12-03T00:57:23.820Z,27.67
2022-12-03T00:59:51.716Z,25.60
2022-12-03T01:02:19.354Z,27.40
2022-12-03T01:04:47.899Z,26.50
2022-12-03T01:07:15.623Z,27.45
2022-12-03T01:09:43.491Z,26.50
2022-12-03T01:12:12.053Z,26.70
2022-12-03T01:14:40.060Z,27.25
2022-12-03T01:17:07.670Z,25.45
2022-12-03T01:19:35.907Z,25.80
2022-12-03T01:22:03.695Z,26.42
2022-12-03T01:24:32.350Z,25.30
2022-12-03T01:27:00.929Z,25.33
2022-12-03T01:29:28.863Z,25.85
2022-12-03T01:32:15.048Z,24.90
2022-12-03T01:34:54.906Z,23.58
2022-12-03T01:37:25.453Z,24.38
2022-12-03T01:39:53.757Z,25.10
2022-12-03T01:42:39.572Z,25.48
2022-12-03T01:45:19.351Z,24.42
2022-12-03T01:47:46.960Z,23.45
2022-12-03T01:50:31.712Z,22.42
2022-12-03T01:53:02.999Z,23.85
2022-12-03T01:55:31.399Z,22.27
2022-12-03T01:58:01.921Z,23.05
2022-12-03T02:00:30.301Z,22.55
2022-12-03T02:03:03.830Z,22.77
2022-12-03T02:05:33.314Z,22.48
2022-12-03T02:08:01.605Z,22.65
2022-12-03T02:10:37.867Z,21.88
2022-12-03T02:13:10.640Z,21.77
2022-12-03T02:15:40.177Z,22.70
2022-12-03T02:18:09.347Z,22.35
2022-12-03T02:21:07.994Z,21.48
2022-12-03T02:23:47.454Z,21.65
2022-12-03T02:26:15.501Z,22.38
2022-12-03T02:28:43.314Z,22.17
2022-12-03T02:31:11.447Z,24.25
2022-12-03T02:33:39.302Z,23.27
2022-12-03T02:36:07.425Z,22.95
2022-12-03T02:38:36.365Z,21.33
2022-12-03T02:41:08.510Z,23.95
2022-12-03T02:43:36.759Z,23.08
2022-12-03T02:46:07.855Z,21.85
2022-12-03T02:48:39.892Z,24.20
2022-12-03T02:51:10.293Z,21.40
2022-12-03T02:53:48.752Z,23.77
2022-12-03T02:56:21.091Z,22.65
2022-12-03T02:58:52.674Z,23.40
2022-12-03T03:01:20.708Z,23.50
2022-12-03T03:03:50.881Z,22.52
2022-12-03T03:06:20.818Z,23.95
2022-12-03T03:08:49.287Z,23.48
2022-12-03T03:11:17.233Z,24.13
2022-12-03T03:13:44.884Z,22.90
2022-12-03T03:16:13.239Z,23.58
2022-12-03T03:18:41.241Z,22.75
2022-12-03T03:21:09.610Z,23.30
2022-12-03T03:23:37.158Z,22.15
2022-12-03T03:26:11.866Z,22.95
2022-12-03T03:28:43.658Z,22.60
2022-12-03T03:31:15.283Z,23.95
2022-12-03T03:33:47.122Z,22.40
2022-12-03T03:36:16.713Z,22.83
2022-12-03T03:38:44.440Z,23.20
2022-12-03T03:41:13.197Z,23.17
2022-12-03T03:43:42.647Z,22.92
2022-12-03T03:46:12.108Z,24.38
2022-12-03T03:48:41.850Z,24.13
2022-12-03T03:51:11.212Z,23.45
2022-12-03T03:53:41.195Z,24.08
2022-12-03T03:56:09.706Z,24.45
2022-12-03T03:58:38.098Z,24.45
2022-12-03T04:01:06.465Z,24.90
2022-12-03T04:03:35.356Z,23.65
2022-12-03T04:06:03.564Z,23.95
2022-12-03T04:08:31.803Z,24.15
2022-12-03T04:11:18.105Z,23.17
2022-12-03T04:13:45.689Z,24.13
2022-12-03T04:16:13.667Z,22.40
2022-12-03T04:18:44.529Z,23.88
2022-12-03T04:21:39.295Z,24.65
2022-12-03T04:24:08.623Z,24.10
2022-12-03T04:26:55.789Z,24.48
2022-12-03T04:29:23.754Z,25.63
2022-12-03T04:32:10.274Z,24.63
2022-12-03T04:34:56.791Z,24.10
2022-12-03T04:37:25.099Z,23.80
2022-12-03T04:39:52.715Z,23.58
2022-12-03T04:42:20.621Z,24.83
2022-12-03T04:44:48.448Z,25.40
2022-12-03T04:47:21.563Z,24.80
2022-12-03T04:49:51.719Z,25.37
2022-12-03T04:52:20.799Z,24.48
2022-12-03T04:54:48.805Z,24.52
2022-12-03T04:57:16.735Z,24.77
2022-12-03T04:59:44.456Z,23.10
2022-12-03T05:02:12.389Z,23.20
2022-12-03T05:04:40.412Z,25.42
2022-12-03T05:07:08.285Z,24.20
2022-12-03T05:09:36.034Z,23.25
2022-12-03T05:12:04.066Z,23.60
2022-12-03T05:14:31.663Z,23.50
2022-12-03T05:16:59.692Z,23.83
2022-12-03T05:19:47.302Z,23.15
2022-12-03T05:22:15.350Z,23.08
2022-12-03T05:24:43.038Z,23.75
2022-12-03T05:27:11.002Z,25.10
2022-12-03T05:29:38.652Z,22.92
2022-12-03T05:32:06.601Z,23.88
2022-12-03T05:34:34.296Z,23.40
2022-12-03T05:37:02.169Z,22.77
2022-12-03T05:39:29.926Z,22.73
2022-12-03T05:42:27.234Z,21.85
2022-12-03T05:44:55.044Z,22.83
2022-12-03T05:47:23.099Z,21.67
2022-12-03T05:49:50.659Z,23.45
2022-12-03T05:52:18.552Z,24.05
2022-12-03T05:54:46.152Z,24.58
2022-12-03T05:57:14.014Z,23.92
2022-12-03T05:59:41.586Z,23.13
2022-12-03T06:02:09.473Z,23.17
2022-12-03T06:04:37.273Z,23.25
2022-12-03T06:07:07.464Z,23.65
2022-12-03T06:09:38.639Z,23.73
2022-12-03T06:12:07.006Z,21.83
2022-12-03T06:14:35.671Z,22.48
2022-12-03T06:17:04.750Z,23.83
2022-12-03T06:19:32.764Z,22.13
2022-12-03T06:22:00.614Z,23.13
2022-12-03T06:24:28.452Z,23.45
2022-12-03T06:26:56.281Z,23.90
2022-12-03T06:29:23.850Z,23.58
2022-12-03T06:31:51.688Z,23.05
2022-12-03T06:34:19.339Z,22.98
2022-12-03T06:36:47.168Z,24.83
2022-12-03T06:39:14.788Z,23.98
2022-12-03T06:41:42.705Z,23.33
2022-12-03T06:44:10.287Z,23.40
2022-12-03T06:46:38.196Z,23.52
2022-12-03T06:49:06.073Z,22.92
2022-12-03T06:51:33.901Z,23.52
2022-12-03T06:54:01.857Z,23.75
2022-12-03T06:56:35.028Z,23.55
2022-12-03T06:59:04.514Z,22.83
2022-12-03T07:01:32.513Z,24.92
2022-12-03T07:04:00.159Z,26.20
2022-12-03T07:06:28.041Z,26.55
2022-12-03T07:08:55.607Z,24.85
2022-12-03T07:11:41.255Z,25.73
2022-12-03T07:14:11.386Z,24.92
2022-12-03T07:16:40.011Z,24.75
2022-12-03T07:19:07.881Z,25.67
2022-12-03T07:21:35.926Z,25.10
2022-12-03T07:24:03.773Z,25.65
2022-12-03T07:26:31.730Z,26.10
2022-12-03T07:28:59.523Z,25.33
2022-12-03T07:31:27.725Z,26.33
2022-12-03T07:33:55.800Z,25.83
2022-12-03T07:36:24.023Z,25.48
2022-12-03T07:38:52.055Z,27.05
2022-12-03T07:41:20.072Z,26.98
2022-12-03T07:43:47.686Z,28.10
2022-12-03T07:46:15.792Z,28.10
2022-12-03T07:48:43.464Z,27.20
2022-12-03T07:51:15.218Z,27.40
2022-12-03T07:53:43.619Z,27.67
2022-12-03T07:56:11.734Z,29.33
2022-12-03T07:58:39.355Z,30.83
2022-12-03T08:01:07.347Z,29.27
2022-12-03T08:03:35.072Z,30.20
2022-12-03T08:06:03.168Z,28.15
2022-12-03T08:08:30.854Z,27.48
2022-12-03T08:10:58.820Z,30.00
2022-12-03T08:13:27.184Z,29.45
2022-12-03T08:16:01.428Z,29.10
2022-12-03T08:18:29.858Z,26.70
2022-12-03T08:20:58.198Z,30.42
2022-12-03T08:23:26.724Z,27.77
2022-12-03T08:25:54.683Z,29.15
2022-12-03T08:28:28.166Z,29.23
2022-12-03T08:31:19.644Z,30.42
2022-12-03T08:33:53.164Z,28.50
2022-12-03T08:39:14.619Z,31.52
2022-12-03T08:42:01.663Z,33.80
2022-12-03T08:44:34.948Z,32.42
2022-12-03T08:47:20.852Z,32.38
2022-12-03T08:50:02.946Z,30.88
2022-12-03T08:52:35.001Z,32.15
2022-12-03T08:55:36.901Z,31.42
2022-12-03T08:58:19.757Z,30.52
2022-12-03T09:00:48.639Z,30.80
2022-12-03T09:03:19.249Z,29.98
2022-12-03T09:05:46.895Z,29.23
2022-12-03T09:08:15.293Z,27.55
2022-12-03T09:10:43.037Z,25.35
2022-12-03T09:13:10.898Z,25.23
2022-12-03T09:15:38.581Z,26.30
2022-12-03T09:18:06.568Z,25.50
2022-12-03T09:20:34.204Z,27.38
2022-12-03T09:23:02.118Z,25.83
2022-12-03T09:25:29.725Z,28.10
2022-12-03T09:27:57.635Z,26.20
2022-12-03T09:30:25.489Z,26.83
2022-12-03T09:32:53.336Z,26.27
2022-12-03T09:35:21.032Z,25.75
2022-12-03T09:37:48.863Z,25.30
2022-12-03T09:40:16.618Z,25.67
2022-12-03T09:42:45.061Z,24.63
2022-12-03T09:45:14.443Z,25.45
2022-12-03T09:47:46.194Z,23.73
2022-12-03T09:50:20.148Z,23.48
2022-12-03T09:52:51.124Z,25.20
2022-12-03T09:55:24.808Z,24.83
2022-12-03T09:57:54.400Z,23.15
2022-12-03T10:00:30.217Z,24.70
2022-12-03T10:03:02.353Z,25.17
2022-12-03T10:05:30.425Z,24.67
2022-12-03T10:08:08.464Z,23.95
2022-12-03T10:10:37.135Z,23.65
2022-12-03T10:13:06.011Z,23.88
2022-12-03T10:15:33.981Z,23.95
2022-12-03T10:18:15.881Z,23.33
2022-12-03T10:20:43.643Z,21.75
2022-12-03T10:23:26.009Z,21.42
2022-12-03T10:25:56.971Z,23.17
2022-12-03T10:28:37.351Z,24.77
2022-12-03T10:31:08.524Z,23.25
2022-12-03T10:33:45.603Z,23.17
2022-12-03T10:36:20.649Z,22.90
2022-12-03T10:39:06.878Z,23.25
2022-12-03T10:41:35.073Z,23.25
2022-12-03T10:44:18.852Z,22.85
2022-12-03T10:47:04.376Z,23.35
2022-12-03T10:49:32.525Z,23.40
2022-12-03T10:52:00.359Z,25.30
2022-12-03T10:54:30.738Z,26.45
2022-12-03T10:56:58.465Z,25.15
2022-12-03T10:59:30.808Z,23.75
2022-12-03T11:01:58.983Z,24.23
2022-12-03T11:04:34.792Z,24.20
2022-12-03T11:07:06.598Z,24.10
2022-12-03T11:09:34.482Z,24.95
2022-12-03T11:12:17.647Z,24.23
2022-12-03T11:14:53.096Z,24.55
2022-12-03T11:17:39.497Z,25.23
2022-12-03T11:20:30.569Z,25.25
2022-12-03T11:22:59.239Z,25.33
2022-12-03T11:25:27.349Z,25.27
2022-12-03T11:28:15.680Z,24.27
2022-12-03T11:30:50.059Z,24.00
2022-12-03T11:33:24.933Z,26.20
2022-12-03T11:36:05.160Z,23.80
2022-12-03T11:38:40.914Z,23.33
2022-12-03T11:41:10.538Z,25.25
2022-12-03T11:43:53.325Z,25.85
2022-12-03T11:46:24.746Z,25.13
2022-12-03T11:48:54.701Z,25.25
2022-12-03T11:51:24.359Z,26.25
2022-12-03T11:53:55.382Z,29.05
2022-12-03T11:56:30.932Z,27.15
2022-12-03T11:59:04.281Z,28.25
2022-12-03T12:01:39.095Z,27.75
2022-12-03T12:04:25.947Z,24.85
2022-12-03T12:06:53.929Z,25.70
2022-12-03T12:09:54.198Z,25.58
2022-12-03T12:12:30.277Z,26.77
2022-12-03T12:14:59.025Z,25.88
2022-12-03T12:17:37.489Z,26.08
2022-12-03T12:20:26.716Z,26.35
2022-12-03T12:22:55.958Z,26.25
2022-12-03T12:25:40.962Z,26.63
2022-12-03T12:28:09.268Z,25.45
2022-12-03T12:30:38.914Z,25.27
2022-12-03T12:33:26.164Z,26.90
2022-12-03T12:35:54.756Z,27.17
2022-12-03T12:38:24.481Z,25.40
2022-12-03T12:40:52.805Z,27.13
2022-12-03T12:43:26.868Z,26.75
2022-12-03T12:48:34.050Z,25.38
2022-12-03T12:51:11.615Z,26.77
2022-12-03T12:53:42.915Z,27.13
2022-12-03T12:56:31.559Z,26.15
2022-12-03T12:59:10.146Z,27.65
2022-12-03T13:01:38.004Z,26.00
2022-12-03T13:04:13.331Z,26.35
2022-12-03T13:06:41.953Z,26.98
2022-12-03T13:09:27.719Z,27.13
2022-12-03T13:11:59.281Z,25.38
2022-12-03T13:14:31.979Z,26.90
2022-12-03T13:17:01.693Z,27.35
2022-12-03T13:19:39.571Z,27.70
2022-12-03T13:22:21.404Z,27.85
2022-12-03T13:24:54.919Z,26.67
2022-12-03T13:27:31.846Z,29.88
2022-12-03T13:30:07.282Z,30.00
2022-12-03T13:32:37.711Z,31.00
2022-12-03T13:35:30.570Z,30.48
2022-12-03T13:38:01.581Z,29.45
2022-12-03T13:40:36.243Z,29.58
2022-12-03T13:43:16.653Z,29.35
2022-12-03T13:45:47.272Z,29.00
2022-12-03T13:48:35.118Z,29.15
2022-12-03T13:51:19.675Z,28.88
2022-12-03T13:53:47.358Z,29.77
2022-12-03T13:56:21.418Z,27.08
2022-12-03T13:58:49.133Z,27.60
2022-12-03T14:01:17.366Z,26.73
2022-12-03T14:03:45.304Z,29.45
2022-12-03T14:06:13.247Z,29.40
2022-12-03T14:08:41.087Z,28.40
2022-12-03T14:11:09.144Z,28.55
2022-12-03T14:13:36.870Z,30.40
2022-12-03T14:16:05.147Z,30.60
2022-12-03T14:18:32.783Z,30.90
2022-12-03T14:21:00.634Z,31.20
2022-12-03T14:23:28.242Z,30.42
2022-12-03T14:25:56.378Z,29.25
2022-12-03T14:28:24.155Z,31.08
2022-12-03T14:30:53.736Z,28.45
2022-12-03T14:33:21.363Z,33.92
2022-12-03T14:35:49.362Z,31.85
2022-12-03T14:38:16.998Z,31.27
2022-12-03T14:40:45.191Z,31.88
2022-12-03T14:43:12.897Z,32.60
2022-12-03T14:45:41.048Z,32.58
2022-12-03T14:48:08.782Z,29.50
2022-12-03T14:50:36.784Z,32.85
2022-12-03T14:53:04.465Z,31.85
2022-12-03T14:55:32.476Z,32.17
2022-12-03T14:58:00.090Z,30.85
2022-12-03T15:00:28.087Z,31.30
2022-12-03T15:02:55.880Z,28.77
2022-12-03T15:05:28.566Z,29.98
2022-12-03T15:07:57.181Z,29.53
2022-12-03T15:10:25.149Z,29.40
2022-12-03T15:12:52.807Z,28.80
2022-12-03T15:15:21.263Z,27.63
2022-12-03T15:17:49.348Z,29.45
2022-12-03T15:20:19.620Z,30.50
2022-12-03T15:22:47.214Z,31.20
2022-12-03T15:25:15.251Z,30.90
2022-12-03T15:27:42.856Z,30.52
2022-12-03T15:30:10.780Z,31.73
2022-12-03T15:32:40.521Z,31.30
2022-12-03T15:35:08.822Z,32.40
2022-12-03T15:37:36.462Z,33.03
2022-12-03T15:40:04.830Z,35.50
2022-12-03T15:42:32.493Z,33.95
2022-12-03T15:45:00.656Z,36.17
2022-12-03T15:47:28.398Z,33.15
2022-12-03T15:49:56.531Z,32.53
2022-12-03T15:52:24.398Z,35.05
2022-12-03T15:54:52.580Z,34.63
2022-12-03T15:57:20.229Z,34.15
2022-12-03T15:59:48.203Z,32.17
2022-12-03T16:02:15.846Z,34.45
2022-12-03T16:04:44.555Z,34.05
2022-12-03T16:07:12.271Z,34.35
2022-12-03T16:09:40.131Z,34.47
2022-12-03T16:12:07.748Z,36.58
2022-12-03T16:14:35.696Z,36.40
2022-12-03T16:17:03.340Z,35.83
2022-12-03T16:19:31.322Z,41.40
2022-12-03T16:22:00.830Z,41.25
2022-12-03T16:24:28.728Z,36.60
2022-12-03T16:26:56.277Z,36.17
2022-12-03T16:29:24.239Z,35.55
2022-12-03T16:31:51.846Z,36.10
2022-12-03T16:34:19.751Z,37.58
2022-12-03T16:36:48.093Z,36.45
2022-12-03T16:39:16.555Z,36.42
2022-12-03T16:41:44.990Z,34.30
2022-12-03T16:44:20.430Z,35.50
2022-12-03T16:46:48.029Z,35.78
2022-12-03T16:49:15.908Z,35.55
2022-12-03T16:51:43.504Z,39.00
2022-12-03T16:54:11.760Z,40.65
2022-12-03T16:56:39.384Z,39.05
2022-12-03T16:59:07.260Z,42.35
2022-12-03T17:01:34.936Z,40.55
2022-12-03T17:04:02.958Z,40.25
2022-12-03T17:06:30.581Z,41.13
2022-12-03T17:08:58.461Z,40.58
2022-12-03T17:11:26.177Z,41.63
2022-12-03T17:13:54.499Z,41.92
2022-12-03T17:16:22.227Z,38.65
2022-12-03T17:18:50.129Z,43.10
2022-12-03T17:21:17.672Z,44.20
2022-12-03T17:23:48.772Z,44.17
2022-12-03T17:26:17.042Z,40.03
2022-12-03T17:28:45.621Z,43.42
2022-12-03T17:31:13.957Z,41.55
2022-12-03T17:33:41.905Z,40.05
2022-12-03T17:36:10.267Z,40.42
2022-12-03T17:38:39.506Z,40.85
2022-12-03T17:41:07.657Z,38.72
2022-12-03T17:43:35.508Z,39.58
2022-12-03T17:46:05.114Z,39.60
2022-12-03T17:48:35.847Z,39.97
2022-12-03T17:51:03.496Z,40.97
2022-12-03T17:53:31.391Z,44.22
2022-12-03T17:55:59.022Z,40.58
2022-12-03T17:58:27.713Z,43.30
2022-12-03T18:01:00.434Z,40.60
2022-12-03T18:03:31.013Z,40.80
2022-12-03T18:05:58.684Z,40.42
2022-12-03T18:08:26.654Z,41.80
2022-12-03T18:10:54.492Z,41.65
2022-12-03T18:13:22.385Z,39.65
2022-12-03T18:15:50.027Z,39.45
2022-12-03T18:18:17.939Z,41.38
2022-12-03T18:20:45.584Z,39.28
2022-12-03T18:23:13.648Z,39.35
2022-12-03T18:25:42.186Z,40.03
2022-12-03T18:28:10.123Z,35.25
2022-12-03T18:30:37.771Z,37.42
2022-12-03T18:33:05.672Z,39.00
2022-12-03T18:35:33.403Z,38.30
2022-12-03T18:38:01.640Z,35.65
2022-12-03T18:40:29.400Z,37.40
2022-12-03T18:42:57.367Z,37.80
2022-12-03T18:45:25.131Z,40.67
2022-12-03T18:47:53.095Z,40.95
2022-12-03T18:50:20.767Z,41.47
2022-12-03T18:52:48.585Z,38.35
2022-12-03T18:55:19.939Z,36.88
2022-12-03T18:57:48.027Z,37.65
2022-12-03T19:00:16.104Z,39.38
2022-12-03T19:05:34.191Z,36.65
2022-12-03T19:08:03.499Z,39.25
2022-12-03T19:10:31.335Z,38.42
2022-12-03T19:12:59.289Z,36.78
2022-12-03T19:15:26.994Z,37.38
2022-12-03T19:17:54.818Z,37.42
2022-12-03T19:20:22.396Z,37.08
2022-12-03T19:22:50.382Z,35.72
2022-12-03T19:25:18.145Z,35.22
2022-12-03T19:27:46.224Z,37.10
2022-12-03T19:30:14.041Z,36.05
2022-12-03T19:32:41.879Z,37.03
2022-12-03T19:35:11.343Z,36.83
2022-12-03T19:37:39.455Z,36.83
2022-12-03T19:40:10.228Z,38.88
2022-12-03T19:42:38.665Z,35.78
2022-12-03T19:45:07.010Z,36.67
2022-12-03T19:47:36.161Z,36.70
2022-12-03T19:50:05.157Z,36.70
2022-12-03T19:52:36.479Z,37.47
2022-12-03T19:55:05.116Z,35.28
2022-12-03T19:57:33.190Z,38.75
2022-12-03T20:00:01.192Z,36.60
2022-12-03T20:02:29.361Z,38.22
2022-12-03T20:04:57.250Z,34.85
2022-12-03T20:07:25.134Z,35.45
2022-12-03T20:09:53.097Z,35.70
2022-12-03T20:12:21.463Z,37.60
2022-12-03T20:14:50.092Z,33.15
2022-12-03T20:17:18.032Z,37.33
2022-12-03T20:19:45.690Z,36.92
2022-12-03T20:22:13.638Z,36.15
2022-12-03T20:24:41.267Z,35.47
2022-12-03T20:27:09.258Z,35.72
2022-12-03T20:29:36.924Z,31.98
2022-12-03T20:32:06.960Z,39.88
2022-12-03T20:34:35.989Z,38.88
2022-12-03T20:37:04.010Z,37.50
2022-12-03T20:39:31.831Z,32.35
2022-12-03T20:41:59.792Z,31.77
2022-12-03T20:44:27.470Z,36.92
2022-12-03T20:46:55.804Z,33.33
2022-12-03T20:49:23.488Z,36.50
2022-12-03T20:51:51.449Z,37.17
2022-12-03T20:54:19.164Z,37.00
2022-12-03T20:56:47.155Z,30.77
2022-12-03T20:59:16.773Z,34.97
2022-12-03T21:01:45.467Z,35.80
2022-12-03T21:04:13.648Z,35.92
2022-12-03T21:06:42.407Z,34.63
2022-12-03T21:09:11.559Z,37.15
2022-12-03T21:11:42.283Z,34.90
2022-12-03T21:14:11.316Z,36.28
2022-12-03T21:17:06.626Z,36.35
2022-12-03T21:19:27.774Z,37.05
2022-12-03T21:21:55.848Z,37.08
2022-12-03T21:24:23.711Z,38.20
2022-12-03T21:26:51.582Z,36.00
2022-12-03T21:29:19.260Z,37.05
2022-12-03T21:31:47.248Z,37.67
2022-12-03T21:34:15.126Z,36.80
2022-12-03T21:36:43.155Z,32.58
2022-12-03T21:39:11.012Z,34.72
2022-12-03T21:41:39.518Z,34.38
2022-12-03T21:44:07.170Z,32.17
2022-12-03T21:47:10.311Z,35.45
2022-12-03T21:49:23.370Z,31.27
2022-12-03T21:51:51.365Z,30.13
2022-12-03T21:54:19.158Z,30.60
2022-12-03T21:56:47.103Z,31.33
2022-12-03T21:59:15.206Z,34.58
2022-12-03T22:01:47.127Z,32.20
2022-12-03T22:04:15.138Z,33.90
2022-12-03T22:06:43.192Z,30.38
2022-12-03T22:09:10.819Z,33.03
2022-12-03T22:11:38.859Z,31.83
2022-12-03T22:14:08.208Z,34.50
2022-12-03T22:16:36.256Z,30.20
2022-12-03T22:19:04.090Z,32.80
2022-12-03T22:21:31.951Z,32.75
2022-12-03T22:23:59.814Z,31.60
2022-12-03T22:26:27.713Z,32.13
2022-12-03T22:28:55.325Z,29.77
2022-12-03T22:31:23.318Z,27.65
2022-12-03T22:33:51.009Z,29.02
2022-12-03T22:36:21.455Z,27.80
2022-12-03T22:38:50.519Z,30.58
2022-12-03T22:41:20.010Z,29.02
2022-12-03T22:43:48.583Z,34.30
2022-12-03T22:46:17.376Z,32.47
2022-12-03T22:48:46.616Z,32.03
2022-12-03T22:51:20.910Z,29.92
2022-12-03T22:53:53.643Z,22.48
2022-12-03T22:56:22.553Z,28.75
2022-12-03T22:58:50.581Z,27.08
2022-12-03T23:01:29.676Z,25.98
2022-12-03T23:03:58.164Z,25.60
2022-12-03T23:06:26.985Z,27.58
2022-12-03T23:08:55.278Z,28.83
2022-12-03T23:11:23.493Z,29.88
2022-12-03T23:13:51.251Z,30.70
2022-12-03T23:16:26.141Z,30.02
2022-12-03T23:18:54.246Z,29.48
2022-12-03T23:21:29.525Z,29.92
2022-12-03T23:23:59.840Z,30.58
2022-12-03T23:26:28.844Z,30.35
2022-12-03T23:28:56.982Z,28.58
2022-12-03T23:31:31.335Z,28.13
2022-12-03T23:34:00.120Z,30.85
2022-12-03T23:36:30.499Z,30.52
2022-12-03T23:38:58.224Z,31.88
2022-12-03T23:41:26.370Z,29.85
2022-12-03T23:43:54.072Z,29.05
2022-12-03T23:46:27.948Z,30.85
2022-12-03T23:48:58.486Z,29.95
2022-12-03T23:51:26.873Z,31.55
2022-12-03T23:53:55.575Z,30.42
2022-12-03T23:56:29.940Z,30.63
2022-12-03T23:58:58.746Z,32.58
